createdAt,value
2023-05-22T00:03:57.169Z,22.57
2023-05-22T00:07:58.853Z,22.20
2023-05-22T00:12:00.333Z,22.27
2023-05-22T00:16:01.871Z,22.23
2023-05-22T00:20:06.027Z,22.03
2023-05-22T00:24:07.855Z,22.13
2023-05-22T00:28:09.324Z,22.53
2023-05-22T00:32:10.921Z,23.57
2023-05-22T00:36:13.886Z,23.67
2023-05-22T00:40:15.655Z,23.40
2023-05-22T00:44:17.119Z,22.93
2023-05-22T00:48:18.594Z,22.70
2023-05-22T00:52:21.879Z,20.93
2023-05-22T00:56:24.111Z,19.90
2023-05-22T01:00:26.027Z,19.73
2023-05-22T01:04:27.933Z,19.03
2023-05-22T01:08:30.920Z,17.83
2023-05-22T01:12:43.925Z,18.87
2023-05-22T01:16:52.717Z,17.73
2023-05-22T01:21:01.794Z,17.87
2023-05-22T01:25:24.758Z,18.23
2023-05-22T01:29:55.712Z,17.57
2023-05-22T01:34:02.321Z,17.20
2023-05-22T01:38:04.270Z,17.17
2023-05-22T01:42:06.243Z,17.27
2023-05-22T01:46:07.808Z,17.47
2023-05-22T01:50:11.943Z,16.57
2023-05-22T01:54:19.467Z,14.70
2023-05-22T01:58:26.320Z,14.67
2023-05-22T02:02:29.055Z,13.97
2023-05-22T02:06:33.285Z,14.60
2023-05-22T02:10:36.163Z,16.03
2023-05-22T02:14:38.090Z,15.77
2023-05-22T02:18:39.557Z,16.87
2023-05-22T02:22:43.401Z,18.07
2023-05-22T02:26:45.044Z,17.87
2023-05-22T02:30:46.573Z,18.90
2023-05-22T02:34:48.047Z,22.20
2023-05-22T02:38:51.047Z,21.73
2023-05-22T02:42:52.816Z,22.77
2023-05-22T02:46:54.457Z,22.17
2023-05-22T02:50:55.995Z,21.43
2023-05-22T02:54:58.870Z,22.77
2023-05-22T02:59:00.320Z,23.70
2023-05-22T03:03:01.878Z,22.87
2023-05-22T03:07:03.686Z,22.77
2023-05-22T03:11:06.535Z,21.47
2023-05-22T03:15:09.410Z,21.43
2023-05-22T03:19:11.632Z,20.23
2023-05-22T03:23:13.123Z,19.03
2023-05-22T03:27:15.885Z,19.23
2023-05-22T03:31:18.627Z,18.67
2023-05-22T03:35:20.075Z,19.00
2023-05-22T03:39:21.711Z,18.10
2023-05-22T03:43:24.520Z,18.50
2023-05-22T03:47:26.139Z,18.10
2023-05-22T03:51:27.678Z,19.93
2023-05-22T03:55:29.143Z,19.23
2023-05-22T03:59:32.188Z,20.70
2023-05-22T04:03:33.757Z,22.03
2023-05-22T04:07:36.281Z,20.47
2023-05-22T04:11:37.975Z,20.50
2023-05-22T04:15:40.910Z,20.97
2023-05-22T04:19:42.382Z,21.20
2023-05-22T04:23:43.808Z,21.27
2023-05-22T04:27:45.232Z,21.43
2023-05-22T04:31:48.416Z,22.03
2023-05-22T04:35:51.786Z,22.47
2023-05-22T04:39:53.658Z,23.17
2023-05-22T04:43:55.183Z,23.33
2023-05-22T04:48:00.193Z,22.80
2023-05-22T04:52:01.692Z,22.93
2023-05-22T04:56:03.370Z,23.80
2023-05-22T05:00:05.961Z,24.30
2023-05-22T05:04:09.421Z,25.90
2023-05-22T05:08:10.965Z,24.83
2023-05-22T05:12:12.432Z,25.50
2023-05-22T05:16:13.879Z,25.83
2023-05-22T05:20:16.729Z,25.20
2023-05-22T05:24:18.540Z,26.50
2023-05-22T05:28:20.163Z,26.20
2023-05-22T05:32:21.991Z,24.93
2023-05-22T05:36:25.434Z,25.27
2023-05-22T05:40:27.034Z,25.10
2023-05-22T05:44:28.703Z,26.97
2023-05-22T05:48:30.356Z,24.87
2023-05-22T05:52:33.199Z,25.80
2023-05-22T05:56:34.868Z,24.37
2023-05-22T06:00:36.639Z,25.57
2023-05-22T06:04:38.190Z,25.37
2023-05-22T06:08:41.065Z,26.30
2023-05-22T06:12:42.598Z,24.33
2023-05-22T06:16:46.451Z,24.63
2023-05-22T06:20:48.344Z,24.40
2023-05-22T06:24:51.208Z,25.53
2023-05-22T06:28:52.808Z,24.77
2023-05-22T06:32:54.483Z,25.00
2023-05-22T06:36:56.019Z,24.50
2023-05-22T06:40:59.057Z,25.10
2023-05-22T06:45:00.585Z,25.20
2023-05-22T06:49:02.258Z,24.47
2023-05-22T06:53:03.838Z,23.87
2023-05-22T06:57:06.871Z,24.70
2023-05-22T07:01:08.437Z,23.23
2023-05-22T07:05:09.963Z,24.93
2023-05-22T07:09:11.495Z,24.77
2023-05-22T07:13:14.620Z,27.07
2023-05-22T07:17:16.102Z,25.40
2023-05-22T07:21:17.551Z,24.83
2023-05-22T07:25:19.164Z,26.90
2023-05-22T07:29:23.194Z,27.47
2023-05-22T07:33:25.282Z,30.13
2023-05-22T07:37:26.825Z,31.47
2023-05-22T07:41:28.340Z,30.73
2023-05-22T07:45:31.236Z,30.13
2023-05-22T07:49:32.900Z,29.03
2023-05-22T07:53:34.308Z,28.73
2023-05-22T07:57:35.932Z,27.43
2023-05-22T08:01:39.138Z,26.83
2023-05-22T08:05:40.619Z,27.73
2023-05-22T08:09:43.004Z,27.30
2023-05-22T08:13:44.538Z,26.90
2023-05-22T08:17:48.038Z,28.20
2023-05-22T08:21:49.614Z,25.87
2023-05-22T08:25:51.159Z,26.80
2023-05-22T08:29:52.707Z,25.10
2023-05-22T08:33:55.565Z,25.43
2023-05-22T08:37:57.105Z,26.07
2023-05-22T08:41:58.804Z,26.10
2023-05-22T08:46:03.191Z,25.70
2023-05-22T08:50:08.197Z,24.43
2023-05-22T08:54:09.843Z,24.10
2023-05-22T08:58:12.230Z,24.20
2023-05-22T09:02:14.188Z,23.30
2023-05-22T09:06:17.089Z,23.00
2023-05-22T09:10:18.625Z,24.07
2023-05-22T09:14:20.138Z,24.07
2023-05-22T09:18:26.493Z,25.87
2023-05-22T09:22:35.273Z,26.43
2023-05-22T09:26:38.032Z,25.47
2023-05-22T09:30:39.997Z,26.13
2023-05-22T09:34:41.961Z,28.43
2023-05-22T09:38:46.068Z,29.53
2023-05-22T09:42:47.630Z,28.43
2023-05-22T09:46:49.149Z,28.33
2023-05-22T09:50:53.097Z,28.47
2023-05-22T09:54:56.264Z,28.03
2023-05-22T09:58:59.291Z,29.23
2023-05-22T10:03:08.304Z,29.53
2023-05-22T10:07:11.774Z,32.07
2023-05-22T10:11:15.559Z,31.70
2023-05-22T10:15:17.981Z,30.90
2023-05-22T10:19:19.692Z,31.33
2023-05-22T10:23:21.955Z,32.47
2023-05-22T10:27:24.790Z,29.33
2023-05-22T10:31:32.225Z,32.20
2023-05-22T10:35:42.184Z,33.67
2023-05-22T10:39:54.324Z,31.47
2023-05-22T10:43:59.029Z,33.03
2023-05-22T10:48:05.006Z,31.93
2023-05-22T10:52:08.396Z,32.03
2023-05-22T10:56:11.607Z,30.87
2023-05-22T11:00:15.954Z,31.90
2023-05-22T11:04:17.617Z,30.43
2023-05-22T11:08:38.493Z,32.17
2023-05-22T11:12:40.014Z,31.83
2023-05-22T11:16:44.436Z,31.90
2023-05-22T11:20:46.731Z,31.30
2023-05-22T11:24:49.664Z,30.13
2023-05-22T11:28:52.007Z,30.63
2023-05-22T11:32:55.013Z,32.17
2023-05-22T11:36:59.975Z,32.17
2023-05-22T11:41:01.566Z,31.50
2023-05-22T11:45:05.176Z,31.77
2023-05-22T11:49:08.929Z,32.57
2023-05-22T11:53:10.798Z,30.53
2023-05-22T11:57:13.560Z,30.30
2023-05-22T12:01:15.241Z,29.57
2023-05-22T12:05:20.328Z,29.57
2023-05-22T12:09:22.129Z,30.77
2023-05-22T12:13:25.006Z,28.90
2023-05-22T12:17:28.600Z,29.93
2023-05-22T12:21:31.847Z,28.13
2023-05-22T12:25:35.623Z,28.77
2023-05-22T12:29:38.041Z,29.42
2023-05-22T12:33:40.000Z,28.27
2023-05-22T12:37:48.367Z,28.13
2023-05-22T12:41:49.868Z,27.88
2023-05-22T12:45:51.933Z,25.08
2023-05-22T12:49:53.534Z,25.50
2023-05-22T12:53:56.706Z,27.33
2023-05-22T12:57:58.173Z,25.10
2023-05-22T13:01:59.720Z,27.45
2023-05-22T13:06:01.444Z,26.33
2023-05-22T13:10:05.566Z,24.70
2023-05-22T13:14:07.020Z,26.63
2023-05-22T13:18:08.763Z,26.80
2023-05-22T13:22:10.420Z,28.20
2023-05-22T13:26:13.402Z,26.25
2023-05-22T13:30:15.229Z,27.30
2023-05-22T13:34:16.971Z,27.98
2023-05-22T13:38:18.716Z,28.27
2023-05-22T13:42:21.735Z,28.63
2023-05-22T13:46:23.379Z,29.10
2023-05-22T13:50:25.043Z,27.90
2023-05-22T13:55:04.682Z,30.02
2023-05-22T13:59:09.368Z,28.13
2023-05-22T14:03:11.094Z,31.13
2023-05-22T14:07:12.624Z,31.00
2023-05-22T14:11:14.079Z,30.23
2023-05-22T14:15:19.413Z,32.67
2023-05-22T14:19:21.148Z,29.00
2023-05-22T14:23:22.800Z,29.50
2023-05-22T14:27:24.359Z,29.42
2023-05-22T14:31:28.519Z,29.98
2023-05-22T14:35:30.419Z,31.80
2023-05-22T14:39:31.895Z,31.30
2023-05-22T14:43:33.437Z,29.30
2023-05-22T14:47:36.348Z,30.90
2023-05-22T14:51:37.821Z,31.77
2023-05-22T14:55:39.487Z,33.37
2023-05-22T14:59:41.096Z,30.57
2023-05-22T15:03:43.849Z,33.53
2023-05-22T15:07:47.238Z,31.93
2023-05-22T15:11:49.924Z,34.37
2023-05-22T15:15:51.928Z,33.70
2023-05-22T15:19:56.012Z,33.53
2023-05-22T15:23:57.722Z,35.07
2023-05-22T15:27:59.132Z,34.80
2023-05-22T15:32:00.857Z,34.80
2023-05-22T15:36:03.965Z,37.63
2023-05-22T15:40:06.747Z,36.63
2023-05-22T15:44:11.051Z,35.80
2023-05-22T15:48:12.590Z,35.27
2023-05-22T15:52:15.536Z,35.90
2023-05-22T15:56:16.989Z,36.43
2023-05-22T16:00:19.002Z,34.30
2023-05-22T16:04:20.471Z,35.90
2023-05-22T16:08:23.426Z,37.87
2023-05-22T16:12:24.875Z,39.27
2023-05-22T16:16:26.433Z,37.37
2023-05-22T16:20:28.010Z,37.67
2023-05-22T16:24:30.902Z,36.97
2023-05-22T16:28:32.334Z,40.30
2023-05-22T16:32:33.794Z,36.93
2023-05-22T16:36:41.194Z,40.10
2023-05-22T16:40:45.108Z,40.00
2023-05-22T16:44:46.568Z,37.50
2023-05-22T16:48:48.020Z,37.33
2023-05-22T16:52:49.452Z,37.97
2023-05-22T16:56:52.269Z,39.50
2023-05-22T17:00:53.831Z,36.87
2023-05-22T17:04:55.373Z,37.23
2023-05-22T17:08:56.817Z,38.13
2023-05-22T17:12:59.647Z,39.47
2023-05-22T17:17:01.166Z,38.67
2023-05-22T17:21:02.570Z,39.50
2023-05-22T17:25:05.079Z,37.13
2023-05-22T17:29:08.178Z,35.87
2023-05-22T17:33:09.724Z,36.33
2023-05-22T17:37:11.161Z,35.73
2023-05-22T17:41:12.607Z,34.73
2023-05-22T17:45:15.441Z,35.20
2023-05-22T17:49:16.996Z,34.33
2023-05-22T17:53:18.884Z,34.57
2023-05-22T17:57:20.381Z,34.20
2023-05-22T18:01:23.482Z,34.00
2023-05-22T18:05:25.185Z,32.93
2023-05-22T18:09:26.682Z,32.23
2023-05-22T18:13:28.133Z,32.10
2023-05-22T18:17:30.976Z,30.90
2023-05-22T18:21:32.447Z,29.30
2023-05-22T18:25:33.959Z,31.23
2023-05-22T18:29:35.364Z,29.40
2023-05-22T18:33:38.227Z,29.03
2023-05-22T18:37:39.702Z,27.47
2023-05-22T18:41:41.382Z,26.20
2023-05-22T18:45:42.869Z,22.70
2023-05-22T18:49:45.725Z,14.57
2023-05-22T18:53:47.265Z,12.23
2023-05-22T18:57:48.845Z,12.30
2023-05-22T19:01:50.335Z,8.43
2023-05-22T19:05:53.225Z,8.17
2023-05-22T19:09:54.660Z,8.40
2023-05-22T19:13:56.148Z,8.00
2023-05-22T19:17:57.755Z,8.20
2023-05-22T19:22:00.724Z,8.20
2023-05-22T19:26:02.344Z,8.70
2023-05-22T19:30:04.594Z,8.33
2023-05-22T19:34:06.066Z,8.30
2023-05-22T19:38:08.816Z,8.80
2023-05-22T19:42:10.293Z,8.90
2023-05-22T19:46:11.770Z,8.87
2023-05-22T19:50:13.221Z,9.88
2023-05-22T19:54:16.071Z,9.17
2023-05-22T19:58:17.699Z,8.97
2023-05-22T20:02:19.277Z,8.57
2023-05-22T20:06:21.063Z,8.70
2023-05-22T20:10:23.940Z,9.10
2023-05-22T20:14:25.408Z,8.63
2023-05-22T20:18:27.089Z,8.90
2023-05-22T20:22:28.527Z,8.50
2023-05-22T20:26:31.522Z,9.00
2023-05-22T20:30:33.011Z,9.30
2023-05-22T20:34:34.441Z,8.87
2023-05-22T20:38:36.116Z,9.17
2023-05-22T20:42:39.339Z,8.40
2023-05-22T20:46:40.822Z,9.03
2023-05-22T20:50:42.279Z,8.80
2023-05-22T20:54:43.744Z,9.17
2023-05-22T20:58:46.693Z,9.10
2023-05-22T21:02:48.220Z,8.30
2023-05-22T21:06:49.667Z,9.40
2023-05-22T21:10:51.119Z,9.70
2023-05-22T21:14:53.870Z,8.43
2023-05-22T21:18:55.352Z,8.50
2023-05-22T21:22:56.852Z,8.27
2023-05-22T21:26:58.330Z,8.97
2023-05-22T21:31:01.172Z,7.70
2023-05-22T21:35:02.781Z,7.30
2023-05-22T21:39:04.271Z,7.50
2023-05-22T21:43:05.764Z,7.23
2023-05-22T21:47:08.552Z,8.03
2023-05-22T21:51:10.011Z,7.03
2023-05-22T21:55:11.502Z,7.80
2023-05-22T21:59:13.108Z,8.40
2023-05-22T22:03:16.244Z,8.60
2023-05-22T22:07:17.840Z,8.23
2023-05-22T22:11:19.553Z,8.27
2023-05-22T22:15:21.011Z,7.97
2023-05-22T22:19:24.036Z,7.70
2023-05-22T22:23:25.643Z,8.67
2023-05-22T22:27:27.060Z,8.27
2023-05-22T22:31:28.501Z,8.70
2023-05-22T22:35:31.316Z,8.17
2023-05-22T22:39:33.077Z,8.33
2023-05-22T22:43:34.561Z,8.13
2023-05-22T22:47:36.007Z,7.70
2023-05-22T22:51:38.780Z,7.60
2023-05-22T22:55:40.326Z,7.93
2023-05-22T22:59:42.114Z,7.93
2023-05-22T23:03:43.528Z,6.90
2023-05-22T23:07:46.509Z,7.50
2023-05-22T23:11:47.975Z,7.33
2023-05-22T23:15:49.632Z,7.37
2023-05-22T23:19:51.117Z,7.43
2023-05-22T23:23:54.127Z,7.20
2023-05-22T23:27:55.586Z,7.00
2023-05-22T23:31:57.180Z,6.80
2023-05-22T23:35:58.654Z,6.43
2023-05-22T23:40:01.705Z,6.23
2023-05-22T23:44:03.208Z,6.50
2023-05-22T23:48:04.689Z,6.57
2023-05-22T23:52:06.362Z,6.70
2023-05-22T23:56:09.507Z,6.93
